Time;durP1;ratioP1;P1;durP2;ratioP2;P2;SDS_P1;SDS_P2;PMS_P1;PMS_P2;Temp;Humidity;BMP_temperature;BMP_pressure;BME280_temperature;BME280_humidity;BME280_pressure;Samples;Min_cycle;Max_cycle;Signal;HPM_P1;HPM_P2
2022/07/19 09:38:20;;;;;;;1.03;0.30;;;;;;;20.10;100.00;100089.59;1720689;77;974960;-55
2022/07/19 09:40:49;;;;;;;2.02;0.30;;;;;;;20.10;100.00;100089.59;1771877;78;21372;-55
2022/07/19 09:43:15;;;;;;;0.50;0.33;;;;;;;19.71;100.00;100104.15;1768916;79;20957;-57
2022/07/19 09:45:42;;;;;;;0.60;0.40;;;;;;;19.72;100.00;100096.33;1757883;79;21103;-55
2022/07/19 09:48:08;;;;;;;1.07;0.40;;;;;;;19.76;100.00;100095.57;1748773;80;21017;-57
2022/07/19 09:50:35;;;;;;;0.40;0.40;;;;;;;19.79;100.00;100093.97;1747978;80;20946;-56
2022/07/19 09:53:04;;;;;;;1.10;0.40;;;;;;;19.85;100.00;100094.33;1753920;79;21124;-57
2022/07/19 09:55:31;;;;;;;1.12;0.40;;;;;;;19.96;100.00;100088.00;1754726;79;21030;-55
2022/07/19 09:58:01;;;;;;;0.70;0.40;;;;;;;20.06;100.00;100083.53;1754715;79;21437;-57
2022/07/19 10:00:27;;;;;;;0.88;0.40;;;;;;;20.19;100.00;100091.08;1757836;80;21298;-56
2022/07/19 10:02:59;;;;;;;0.42;0.40;;;;;;;20.27;100.00;100082.23;1757044;80;21105;-57
2022/07/19 10:05:27;;;;;;;2.05;0.47;;;;;;;20.32;100.00;100082.25;1747712;80;21204;-56
2022/07/19 10:07:53;;;;;;;3.17;0.50;;;;;;;20.36;100.00;100079.64;1755405;79;21018;-57
2022/07/19 10:10:21;;;;;;;0.72;0.50;;;;;;;20.42;100.00;100072.78;1750283;80;21152;-57
2022/07/19 10:12:48;;;;;;;0.80;0.42;;;;;;;20.50;100.00;100077.63;1751203;79;20979;-57
2022/07/19 10:15:17;;;;;;;0.90;0.40;;;;;;;20.57;100.00;100076.11;1755246;79;21512;-57
2022/07/19 10:17:56;;;;;;;2.22;0.42;;;;;;;20.61;100.00;100067.51;1753238;80;21248;-58
2022/07/19 10:20:24;;;;;;;0.42;0.37;;;;;;;20.64;100.00;100070.49;1742873;80;21060;-56
2022/07/19 10:22:51;;;;;;;1.32;0.60;;;;;;;20.68;100.00;100070.08;1751975;79;21015;-56
2022/07/19 10:25:18;;;;;;;0.57;0.50;;;;;;;20.75;100.00;100062.25;1753668;80;21006;-58
2022/07/19 10:27:54;;;;;;;2.10;0.50;;;;;;;20.81;100.00;100057.61;1750240;80;21102;-57
2022/07/19 10:30:25;;;;;;;0.47;0.40;;;;;;;20.89;100.00;100061.92;1753806;80;21777;-56
2022/07/19 10:32:54;;;;;;;0.70;0.50;;;;;;;20.93;100.00;100056.54;1753932;80;21110;-57
2022/07/19 10:35:34;;;;;;;0.62;0.40;;;;;;;20.98;100.00;100054.79;1753550;80;21030;-58
2022/07/19 10:38:06;;;;;;;0.60;0.33;;;;;;;21.03;100.00;100045.17;1755278;79;21650;-57
2022/07/19 10:40:51;;;;;;;0.60;0.40;;;;;;;21.15;100.00;100041.88;1758045;79;21073;-56
2022/07/19 10:43:20;;;;;;;0.70;0.45;;;;;;;21.28;100.00;100049.40;1762614;80;21096;-57
2022/07/19 10:46:02;;;;;;;1.05;0.50;;;;;;;21.40;100.00;100033.77;1758460;80;21065;-57
2022/07/19 10:48:49;;;;;;;0.40;0.35;;;;;;;21.51;100.00;100038.67;1755773;79;21054;-57
2022/07/19 10:51:36;;;;;;;0.50;0.40;;;;;;;21.63;100.00;100033.95;1737044;80;21089;-57
2022/07/19 10:54:07;;;;;;;1.07;0.40;;;;;;;21.75;100.00;100026.02;1752874;79;20970;-57
2022/07/19 10:56:35;;;;;;;0.50;0.40;;;;;;;21.82;100.00;100029.06;1752366;80;21206;-57
2022/07/19 10:59:07;;;;;;;0.60;0.35;;;;;;;21.85;100.00;100036.52;1756668;79;20903;-58
2022/07/19 11:01:35;;;;;;;0.50;0.40;;;;;;;21.90;100.00;100030.09;1757984;80;20939;-56
2022/07/19 11:04:35;;;;;;;2.37;0.55;;;;;;;21.96;100.00;100021.81;1758119;80;20899;-57
2022/07/19 11:07:15;;;;;;;0.40;0.35;;;;;;;22.00;100.00;100012.34;1697734;79;21364;-57
2022/07/19 11:09:47;;;;;;;0.85;0.37;;;;;;;22.03;100.00;100031.77;1759274;80;21742;-58
2022/07/19 11:12:36;;;;;;;2.25;0.40;;;;;;;21.99;100.00;100031.67;1759940;79;20940;-57
2022/07/19 11:15:09;;;;;;;0.65;0.30;;;;;;;21.95;100.00;100032.41;1754589;80;20892;-56
2022/07/19 11:17:36;;;;;;;1.50;0.40;;;;;;;21.94;100.00;100025.72;1752474;79;20919;-56
2022/07/19 11:20:09;;;;;;;0.40;0.40;;;;;;;21.91;100.00;100036.45;1749291;80;20947;-56
2022/07/19 11:22:40;;;;;;;1.00;0.40;;;;;;;21.91;100.00;100032.34;1757457;80;21377;-56
2022/07/19 11:25:08;;;;;;;0.42;0.30;;;;;;;21.94;100.00;100025.22;1760870;80;20888;-57
2022/07/19 11:27:36;;;;;;;2.92;0.37;;;;;;;21.99;100.00;100017.97;1757031;79;20893;-58
2022/07/19 11:30:06;;;;;;;0.55;0.35;;;;;;;22.07;100.00;100023.61;1754484;80;20887;-57
2022/07/19 12:29:42;;;;;;;0.70;0.40;;;;;;;22.17;100.00;100020.39;1705749;80;974979;-58
2022/07/19 12:32:45;;;;;;;0.33;0.30;;;;;;;22.17;100.00;100020.39;1509073;80;978033;-56
2022/07/19 12:35:13;;;;;;;1.75;0.40;;;;;;;22.17;100.00;100020.39;1753495;80;21988;-57
2022/07/19 12:37:44;;;;;;;0.65;0.40;;;;;;;21.36;100.00;100039.14;1753182;80;21919;-57
2022/07/19 12:40:23;;;;;;;2.12;0.40;;;;;;;21.07;100.00;100039.81;1742509;80;21076;-57
2022/07/19 12:43:06;;;;;;;0.50;0.42;;;;;;;20.87;100.00;100042.03;1749759;80;21441;-56
2022/07/19 12:45:35;;;;;;;1.22;0.33;;;;;;;20.73;100.00;100025.94;1752075;79;21054;-56
2022/07/19 12:48:02;;;;;;;0.70;0.30;;;;;;;20.65;100.00;100026.60;1758113;80;21239;-56
2022/07/19 12:50:36;;;;;;;2.15;0.40;;;;;;;20.61;100.00;100023.75;1763446;80;21543;-56
2022/07/19 12:53:05;;;;;;;1.32;0.50;;;;;;;20.62;100.00;100011.81;1754718;80;21058;-56
2022/07/19 12:55:32;;;;;;;0.50;0.42;;;;;;;20.67;100.00;100012.27;1761752;80;21143;-57
2022/07/19 12:58:00;;;;;;;0.47;0.40;;;;;;;20.77;100.00;100018.70;1760876;79;21104;-57
2022/07/19 13:00:28;;;;;;;0.90;0.53;;;;;;;20.88;100.00;100011.44;1762152;79;22411;-59
2022/07/19 13:02:57;;;;;;;0.50;0.42;;;;;;;20.95;100.00;100008.03;1759340;79;21082;-60
2022/07/19 13:05:24;;;;;;;1.50;0.50;;;;;;;20.99;100.00;100011.38;1761577;79;21071;-58
2022/07/19 13:07:50;;;;;;;0.60;0.40;;;;;;;20.99;100.00;100005.41;1761487;79;21112;-57
2022/07/19 13:10:17;;;;;;;0.60;0.50;;;;;;;20.97;100.00;100008.77;1760177;80;21614;-61
2022/07/19 13:12:45;;;;;;;0.70;0.40;;;;;;;20.94;100.00;99999.94;1755669;80;21120;-56
2022/07/19 13:15:12;;;;;;;4.17;0.50;;;;;;;20.92;100.00;100009.69;1762918;80;21080;-57
2022/07/19 13:17:40;;;;;;;0.53;0.50;;;;;;;20.92;100.00;100010.18;1703849;82;21626;-55
2022/07/19 13:20:08;;;;;;;1.20;0.50;;;;;;;20.93;100.00;100000.94;1761870;79;21022;-58
2022/07/19 13:22:37;;;;;;;0.68;0.50;;;;;;;20.93;100.00;99999.08;1762354;79;21314;-55
2022/07/19 13:25:05;;;;;;;1.52;0.65;;;;;;;20.99;100.00;100003.17;1760254;79;22371;-55
2022/07/19 13:27:32;;;;;;;1.87;0.60;;;;;;;21.04;100.00;100003.13;1760186;80;21087;-57
2022/07/19 13:29:59;;;;;;;0.55;0.50;;;;;;;21.11;100.00;99993.36;1729078;80;21005;-55
2022/07/19 13:32:25;;;;;;;2.45;0.50;;;;;;;21.20;100.00;99992.22;1755933;80;21061;-56
2022/07/19 13:34:52;;;;;;;1.00;0.60;;;;;;;21.22;100.00;100005.28;1762029;79;21030;-58
2022/07/19 13:37:18;;;;;;;0.60;0.50;;;;;;;21.19;100.00;99993.22;1755703;80;21244;-56
2022/07/19 13:39:45;;;;;;;0.65;0.50;;;;;;;21.12;100.00;99992.86;1763959;80;21453;-55
2022/07/19 13:42:11;;;;;;;0.80;0.50;;;;;;;21.09;100.00;99993.16;1761054;79;21069;-55
2022/07/19 13:44:38;;;;;;;0.90;0.50;;;;;;;21.12;100.00;99978.68;1764462;79;21310;-55
2022/07/19 13:47:04;;;;;;;1.70;0.40;;;;;;;21.18;100.00;99978.66;1770465;79;21038;-56
2022/07/19 13:49:31;;;;;;;0.60;0.50;;;;;;;21.25;100.00;99974.91;1755441;79;21065;-56
2022/07/19 13:51:58;;;;;;;0.60;0.50;;;;;;;21.32;100.00;99974.22;1758901;79;21346;-55
2022/07/19 13:54:24;;;;;;;0.75;0.60;;;;;;;21.40;100.00;99985.34;1754632;79;20906;-57
2022/07/19 13:56:51;;;;;;;0.47;0.45;;;;;;;21.47;100.00;99976.08;1753766;80;21051;-56
2022/07/19 13:59:18;;;;;;;1.00;0.50;;;;;;;21.52;100.00;99973.81;1755872;79;20921;-57
2022/07/19 14:01:44;;;;;;;0.45;0.40;;;;;;;21.58;100.00;99973.75;1754913;79;21222;-56
2022/07/19 14:04:11;;;;;;;2.10;0.50;;;;;;;21.62;100.00;99964.23;1750992;80;21276;-57
2022/07/19 14:06:37;;;;;;;0.70;0.40;;;;;;;21.64;100.00;99963.09;1751826;80;20975;-56
2022/07/19 14:09:05;;;;;;;1.10;0.50;;;;;;;21.71;100.00;99968.88;1752188;80;20930;-56
2022/07/19 14:11:31;;;;;;;0.95;0.50;;;;;;;21.76;100.00;99971.58;1756147;80;21341;-57
2022/07/19 14:13:58;;;;;;;2.50;0.55;;;;;;;21.82;100.00;99962.80;1758443;80;21831;-56
2022/07/19 14:16:26;;;;;;;1.47;0.57;;;;;;;21.90;100.00;99967.06;1757564;80;21085;-58
2022/07/19 14:18:54;;;;;;;0.50;0.50;;;;;;;21.94;100.00;99968.16;1755728;79;21456;-57
2022/07/19 14:21:20;;;;;;;0.55;0.50;;;;;;;21.95;100.00;99965.80;1753799;79;21429;-54
2022/07/19 14:23:47;;;;;;;0.57;0.40;;;;;;;21.97;100.00;99967.39;1756248;79;21541;-56
2022/07/19 14:26:14;;;;;;;2.15;0.65;;;;;;;22.01;100.00;99959.77;1750565;80;22342;-55
2022/07/19 14:28:40;;;;;;;0.55;0.50;;;;;;;22.00;100.00;99959.41;1753180;79;21110;-56
2022/07/19 14:31:07;;;;;;;0.53;0.40;;;;;;;21.99;100.00;99960.41;1758471;79;21061;-53
2022/07/19 14:33:33;;;;;;;0.93;0.55;;;;;;;21.97;100.00;99966.49;1755897;80;21128;-56
2022/07/19 14:35:59;;;;;;;0.50;0.50;;;;;;;21.96;100.00;99954.66;1752124;79;21619;-58
2022/07/19 14:38:26;;;;;;;0.70;0.50;;;;;;;21.97;100.00;99954.16;1750072;79;21492;-57
2022/07/19 14:40:52;;;;;;;0.60;0.50;;;;;;;21.97;100.00;99952.32;1753289;79;21128;-56
2022/07/19 14:43:19;;;;;;;0.60;0.60;;;;;;;21.97;100.00;99950.95;1755473;79;21746;-56
2022/07/19 14:45:45;;;;;;;0.78;0.50;;;;;;;21.95;100.00;99950.19;1748671;80;21064;-56
2022/07/19 14:48:12;;;;;;;2.08;0.45;;;;;;;21.94;100.00;99943.00;1762145;79;21168;-56
2022/07/19 14:50:39;;;;;;;1.35;0.50;;;;;;;21.96;100.00;99940.95;1764754;79;21174;-57
2022/07/19 14:53:05;;;;;;;0.80;0.50;;;;;;;22.00;100.00;99946.57;1755450;79;21538;-57
2022/07/19 14:55:32;;;;;;;0.82;0.40;;;;;;;22.04;100.00;99941.65;1763869;79;21632;-56
2022/07/19 14:57:59;;;;;;;2.58;0.60;;;;;;;22.04;100.00;99944.39;1759222;80;21632;-54
2022/07/19 15:00:25;;;;;;;2.52;0.50;;;;;;;22.01;100.00;99932.36;1757264;80;21068;-56
2022/07/19 15:02:52;;;;;;;0.80;0.50;;;;;;;22.00;100.00;99927.88;1757391;79;21828;-56
2022/07/19 15:05:18;;;;;;;2.05;0.60;;;;;;;22.02;100.00;99932.23;1760665;80;21642;-54
2022/07/19 15:07:45;;;;;;;1.05;0.57;;;;;;;22.03;100.00;99931.19;1766361;79;21077;-55
2022/07/19 15:10:11;;;;;;;5.15;0.78;;;;;;;22.04;100.00;99937.54;1761730;80;21012;-58
2022/07/19 15:12:37;;;;;;;0.40;0.40;;;;;;;22.00;100.00;99936.97;1764827;79;21332;-52
2022/07/19 15:15:07;;;;;;;0.70;0.53;;;;;;;21.95;100.00;99939.22;1765856;79;21594;-53
2022/07/19 15:17:35;;;;;;;0.40;0.40;;;;;;;21.90;100.00;99938.30;1758309;80;21503;-53
2022/07/19 15:20:02;;;;;;;1.12;0.40;;;;;;;21.83;100.00;99926.67;1763773;80;21053;-53
2022/07/19 15:22:29;;;;;;;0.53;0.50;;;;;;;21.75;100.00;99932.86;1763650;80;21055;-57
2022/07/19 15:24:55;;;;;;;0.82;0.60;;;;;;;21.68;100.00;99927.59;1767103;79;21535;-56
2022/07/19 15:27:21;;;;;;;0.60;0.50;;;;;;;21.63;100.00;99927.62;1763244;80;21464;-54
2022/07/19 15:29:48;;;;;;;0.88;0.40;;;;;;;21.59;100.00;99924.31;1759146;80;21418;-54
2022/07/19 15:32:14;;;;;;;0.50;0.50;;;;;;;21.55;100.00;99928.32;1755230;80;21068;-55
2022/07/19 15:34:41;;;;;;;2.05;0.50;;;;;;;21.51;100.00;99925.52;1762921;79;21083;-54
2022/07/19 15:37:07;;;;;;;0.78;0.50;;;;;;;21.48;100.00;99923.04;1768747;80;21040;-53
2022/07/19 15:39:34;;;;;;;1.02;0.47;;;;;;;21.48;100.00;99931.26;1765319;79;21278;-53
2022/07/19 15:42:00;;;;;;;0.80;0.40;;;;;;;21.47;100.00;99933.13;1759440;79;21112;-58
2022/07/19 15:44:27;;;;;;;0.50;0.45;;;;;;;21.48;100.00;99939.47;1762448;80;21050;-53
2022/07/19 15:46:54;;;;;;;2.40;0.50;;;;;;;21.47;100.00;99937.73;1760419;79;21080;-57
2022/07/19 15:49:21;;;;;;;0.93;0.57;;;;;;;21.46;100.00;99941.47;1763547;80;21520;-53
2022/07/19 15:51:47;;;;;;;0.80;0.50;;;;;;;21.44;100.00;99946.22;1753901;79;21710;-57
2022/07/19 15:54:14;;;;;;;0.98;0.50;;;;;;;21.39;100.00;99954.86;1753442;79;21071;-55
2022/07/19 15:56:41;;;;;;;0.80;0.50;;;;;;;21.33;100.00;99955.92;1751736;79;21063;-53
2022/07/19 15:59:07;;;;;;;0.80;0.50;;;;;;;21.24;100.00;99952.63;1754188;79;21483;-53
2022/07/19 16:01:34;;;;;;;3.12;0.42;;;;;;;21.17;100.00;99956.89;1753689;79;21086;-55
2022/07/19 16:04:01;;;;;;;0.60;0.50;;;;;;;21.12;100.00;99947.70;1711304;80;21489;-51
2022/07/19 16:06:27;;;;;;;0.62;0.40;;;;;;;21.09;100.00;99952.10;1755576;80;21029;-54
2022/07/19 16:08:54;;;;;;;1.15;0.50;;;;;;;21.07;100.00;99952.73;1754369;80;21120;-55
2022/07/19 16:11:20;;;;;;;0.78;0.53;;;;;;;21.06;100.00;99949.13;1755962;79;21085;-53
2022/07/19 16:13:47;;;;;;;1.57;0.53;;;;;;;21.07;100.00;99948.63;1757286;79;21094;-54
2022/07/19 16:16:13;;;;;;;0.62;0.57;;;;;;;21.08;100.00;99956.70;1756154;80;21509;-54
2022/07/19 16:18:41;;;;;;;1.02;0.50;;;;;;;21.08;100.00;99956.70;1754201;80;21080;-54
2022/07/19 16:21:10;;;;;;;0.80;0.45;;;;;;;21.10;100.00;99951.94;1755255;80;21058;-53
2022/07/19 16:23:37;;;;;;;0.70;0.60;;;;;;;21.14;100.00;99952.05;1756800;80;21467;-55
2022/07/19 16:26:05;;;;;;;1.27;0.70;;;;;;;21.19;100.00;99950.28;1682972;82;21105;-54
2022/07/19 16:28:33;;;;;;;1.85;0.60;;;;;;;21.25;100.00;99948.89;1696898;82;21148;-55
2022/07/19 16:31:00;;;;;;;0.65;0.60;;;;;;;21.30;100.00;99946.60;1724597;81;21091;-56
2022/07/19 16:33:28;;;;;;;0.90;0.70;;;;;;;21.35;100.00;99941.06;1726405;80;21587;-53
2022/07/19 16:35:55;;;;;;;0.88;0.70;;;;;;;21.39;100.00;99939.80;1731518;81;21039;-53
2022/07/19 16:38:22;;;;;;;0.95;0.70;;;;;;;21.43;100.00;99941.77;1730985;80;22251;-56
2022/07/19 16:40:48;;;;;;;1.55;0.70;;;;;;;21.44;100.00;99937.50;1722984;80;21209;-53
2022/07/19 16:43:14;;;;;;;0.95;0.60;;;;;;;21.45;100.00;99939.23;1727050;80;21077;-53
2022/07/19 16:45:41;;;;;;;0.98;0.60;;;;;;;21.44;100.00;99936.63;1726729;80;21042;-53
2022/07/19 16:48:08;;;;;;;1.87;0.55;;;;;;;21.40;100.00;99937.43;1724875;80;21375;-53
2022/07/19 16:50:35;;;;;;;0.60;0.60;;;;;;;21.37;100.00;99942.30;1753080;79;21115;-56
2022/07/19 16:53:02;;;;;;;0.80;0.47;;;;;;;21.34;100.00;99946.20;1762306;79;22483;-53
2022/07/19 16:55:28;;;;;;;1.10;0.57;;;;;;;21.30;100.00;99947.47;1756329;79;21011;-54
2022/07/19 16:57:55;;;;;;;0.80;0.50;;;;;;;21.24;100.00;99950.77;1758271;79;20859;-57
2022/07/19 17:00:23;;;;;;;1.55;0.50;;;;;;;21.18;100.00;99952.66;1753065;79;21494;-53
2022/07/19 17:02:50;;;;;;;0.70;0.60;;;;;;;21.12;100.00;99962.25;1756531;79;21044;-53
2022/07/19 17:05:16;;;;;;;0.80;0.60;;;;;;;21.07;100.00;99958.20;1755808;79;21014;-54
2022/07/19 17:07:44;;;;;;;0.98;0.55;;;;;;;21.00;100.00;99950.17;1723134;80;20971;-53
2022/07/19 17:10:11;;;;;;;0.50;0.50;;;;;;;20.93;100.00;99949.83;1754862;80;21031;-57
2022/07/19 17:12:41;;;;;;;0.60;0.42;;;;;;;20.85;100.00;99955.10;1757354;80;21368;-53
2022/07/19 17:15:07;;;;;;;0.40;0.40;;;;;;;20.78;100.00;99956.64;1756660;79;20924;-54
2022/07/19 17:17:34;;;;;;;0.90;0.50;;;;;;;20.71;100.00;99958.19;1754321;79;21042;-55
2022/07/19 17:20:00;;;;;;;0.53;0.42;;;;;;;20.64;100.00;99956.98;1761330;80;20907;-54
2022/07/19 17:22:27;;;;;;;0.60;0.40;;;;;;;20.54;100.00;99951.94;1754075;79;21368;-54
2022/07/19 17:24:54;;;;;;;2.42;0.42;;;;;;;20.49;100.00;99960.55;1756575;80;20960;-56
2022/07/19 17:27:20;;;;;;;1.98;0.45;;;;;;;20.44;100.00;99948.25;1754918;80;20912;-54
2022/07/19 17:29:47;;;;;;;1.32;0.60;;;;;;;20.37;100.00;99948.79;1755029;80;21083;-54
2022/07/19 17:32:14;;;;;;;1.95;0.50;;;;;;;20.32;100.00;99948.80;1747234;80;21061;-55
2022/07/19 17:34:41;;;;;;;4.62;0.62;;;;;;;20.27;100.00;99947.80;1756802;79;21125;-56
2022/07/19 17:37:08;;;;;;;2.40;0.65;;;;;;;20.21;100.00;99948.83;1753240;80;21052;-56
2022/07/19 17:39:34;;;;;;;8.03;0.80;;;;;;;20.15;100.00;99947.99;1752546;79;21084;-55
2022/07/19 17:42:00;;;;;;;2.02;0.60;;;;;;;20.09;100.00;99950.72;1752645;79;21112;-58
2022/07/19 17:44:27;;;;;;;2.37;0.60;;;;;;;20.01;100.00;99951.87;1754604;80;21093;-55
2022/07/19 17:46:53;;;;;;;1.55;0.50;;;;;;;19.94;100.00;99958.35;1747597;80;21036;-55
2022/07/19 17:49:20;;;;;;;1.10;0.50;;;;;;;19.88;100.00;99965.70;1749807;79;21499;-54
2022/07/19 17:51:46;;;;;;;0.70;0.50;;;;;;;19.83;100.00;99959.73;1750772;80;21532;-57
2022/07/19 17:54:13;;;;;;;0.65;0.40;;;;;;;19.78;100.00;99964.73;1753416;79;21109;-53
2022/07/19 17:56:40;;;;;;;4.92;0.50;;;;;;;19.73;100.00;99960.66;1753423;80;21082;-54
2022/07/19 17:59:08;;;;;;;4.47;0.60;;;;;;;19.69;100.00;99959.16;1755500;80;21038;-54
2022/07/19 18:01:35;;;;;;;0.90;0.60;;;;;;;19.63;100.00;99963.27;1759652;80;21350;-55
2022/07/19 18:04:02;;;;;;;1.35;0.57;;;;;;;19.60;100.00;99968.97;1757852;79;21564;-53
2022/07/19 18:06:32;;;;;;;1.52;0.50;;;;;;;19.55;100.00;99973.95;1749617;80;22514;-54
2022/07/19 18:09:01;;;;;;;1.32;0.50;;;;;;;19.51;100.00;99977.91;1680876;83;21070;-53
2022/07/19 18:11:28;;;;;;;2.72;0.68;;;;;;;19.45;100.00;99975.16;1749575;80;21101;-55
2022/07/19 18:13:55;;;;;;;0.80;0.60;;;;;;;19.41;100.00;99983.21;1752715;79;21551;-52
2022/07/19 18:16:22;;;;;;;0.85;0.60;;;;;;;19.36;100.00;99984.09;1753226;79;21442;-54
2022/07/19 18:18:50;;;;;;;1.67;0.70;;;;;;;19.32;100.00;99986.69;1739323;79;21336;-54
2022/07/19 18:21:17;;;;;;;0.80;0.60;;;;;;;19.28;100.00;99984.72;1753820;79;21121;-53
2022/07/19 18:23:44;;;;;;;3.15;0.60;;;;;;;19.24;100.00;99990.52;1755155;79;21478;-54
2022/07/19 18:26:10;;;;;;;0.90;0.60;;;;;;;19.21;100.00;99986.20;1749706;80;21477;-53
2022/07/19 18:28:38;;;;;;;4.08;0.70;;;;;;;19.18;100.00;99993.75;1755869;79;21070;-54
2022/07/19 18:31:05;;;;;;;2.90;0.60;;;;;;;19.15;100.00;99996.72;1751259;80;21178;-55
2022/07/19 18:33:31;;;;;;;1.77;0.70;;;;;;;19.14;100.00;99997.73;1752050;80;21094;-53
2022/07/19 18:35:58;;;;;;;0.80;0.70;;;;;;;19.11;100.00;99998.84;1754916;79;21128;-52
2022/07/19 18:38:26;;;;;;;1.30;0.70;;;;;;;19.10;100.00;100009.38;1756743;79;21741;-54
2022/07/19 18:40:52;;;;;;;1.00;0.70;;;;;;;19.08;100.00;100009.11;1751899;80;21141;-59
2022/07/19 18:43:22;;;;;;;1.00;0.53;;;;;;;19.07;100.00;100006.87;1755211;79;22025;-55
2022/07/19 18:45:49;;;;;;;0.82;0.60;;;;;;;19.06;100.00;100007.86;1752314;79;21007;-55
2022/07/19 18:48:28;;;;;;;2.55;0.60;;;;;;;19.05;100.00;100005.28;1740812;80;21038;-53
2022/07/19 18:50:44;;;;;;;1.98;0.70;;;;;;;19.03;100.00;99996.34;1749414;80;21520;-52
2022/07/19 18:53:11;;;;;;;2.20;0.65;;;;;;;19.01;100.00;99996.46;1753722;80;21005;-54
2022/07/19 18:58:16;;;;;;;3.60;0.80;;;;;;;19.01;100.00;100000.55;1793634;78;28627;-56
2022/07/19 19:00:42;;;;;;;1.35;0.80;;;;;;;18.95;100.00;100001.05;1772902;79;20956;-55
2022/07/19 19:03:09;;;;;;;1.15;0.70;;;;;;;18.95;100.00;100000.17;1762538;79;21934;-54
2022/07/19 19:05:37;;;;;;;1.12;0.70;;;;;;;18.92;100.00;99998.55;1769405;79;20994;-51
2022/07/19 19:08:05;;;;;;;0.70;0.70;;;;;;;18.86;100.00;99996.31;1768960;79;21017;-54
2022/07/19 19:10:33;;;;;;;3.35;0.80;;;;;;;18.84;100.00;99996.42;1764864;79;20958;-51
2022/07/19 19:12:59;;;;;;;1.47;0.90;;;;;;;18.82;100.00;99997.53;1762555;79;20985;-51
2022/07/19 19:15:26;;;;;;;2.98;0.80;;;;;;;18.80;100.00;99994.05;1764510;79;21641;-55
2022/07/19 19:17:52;;;;;;;0.70;0.70;;;;;;;18.79;100.00;99995.06;1767060;79;21009;-52
2022/07/19 19:20:19;;;;;;;1.22;0.70;;;;;;;18.79;100.00;100001.88;1769709;79;21070;-53
2022/07/19 19:22:45;;;;;;;1.17;0.82;;;;;;;18.77;100.00;99997.03;1768934;79;21033;-52
2022/07/19 19:25:12;;;;;;;2.17;1.45;;;;;;;18.76;100.00;99998.89;1768969;79;21767;-52
2022/07/19 19:27:40;;;;;;;0.88;0.70;;;;;;;18.76;100.00;99997.52;1757769;79;21070;-56
2022/07/19 19:30:09;;;;;;;0.88;0.70;;;;;;;18.76;100.00;99994.80;1770436;79;20986;-53
2022/07/19 19:32:35;;;;;;;1.65;0.70;;;;;;;18.77;100.00;99999.27;1758184;79;21040;-56
2022/07/19 19:35:02;;;;;;;1.42;0.75;;;;;;;18.77;100.00;99995.17;1767280;79;21665;-55
2022/07/19 19:37:29;;;;;;;1.10;0.70;;;;;;;18.76;100.00;99993.44;1773663;79;21061;-51
2022/07/19 19:39:56;;;;;;;1.67;0.90;;;;;;;18.77;100.00;99992.94;1745815;79;21191;-52
2022/07/19 19:42:22;;;;;;;1.55;1.00;;;;;;;18.76;100.00;99997.52;1766267;79;21101;-51
2022/07/19 19:44:49;;;;;;;1.35;0.90;;;;;;;18.76;100.00;99996.16;1765655;79;20939;-56
2022/07/19 19:47:16;;;;;;;1.55;0.90;;;;;;;18.74;100.00;99994.04;1773037;79;20966;-52
2022/07/19 19:49:43;;;;;;;2.08;0.80;;;;;;;18.74;100.00;99990.44;1767335;79;20879;-52
2022/07/19 19:52:09;;;;;;;0.82;0.80;;;;;;;18.72;100.00;99998.73;1768544;79;21055;-54
2022/07/19 19:54:36;;;;;;;0.93;0.80;;;;;;;18.71;100.00;99997.52;1773400;79;21424;-56
2022/07/19 19:57:03;;;;;;;2.95;0.93;;;;;;;18.70;100.00;100002.59;1762440;79;21512;-52
2022/07/19 19:59:30;;;;;;;0.85;0.75;;;;;;;18.68;100.00;100008.16;1717934;82;21379;-54
2022/07/19 20:01:57;;;;;;;3.58;0.80;;;;;;;18.67;100.00;100011.00;1754315;80;21003;-52
2022/07/19 20:04:24;;;;;;;1.20;0.80;;;;;;;18.64;100.00;100013.46;1753437;80;21221;-55
2022/07/19 20:06:50;;;;;;;1.75;0.75;;;;;;;18.62;100.00;100015.95;1759305;80;20948;-56
2022/07/19 20:09:18;;;;;;;2.10;0.90;;;;;;;18.58;100.00;100015.31;1748137;80;20880;-53
2022/07/19 20:11:44;;;;;;;0.82;0.70;;;;;;;18.56;100.00;100011.79;1758068;80;20966;-52
2022/07/19 20:14:10;;;;;;;0.60;0.60;;;;;;;18.55;100.00;100014.13;1755055;80;20908;-52
2022/07/19 20:16:37;;;;;;;1.22;0.80;;;;;;;18.53;100.00;100017.00;1713434;82;21148;-53
2022/07/19 20:19:05;;;;;;;1.17;0.82;;;;;;;18.51;100.00;100015.38;1680337;84;20937;-54
2022/07/19 20:21:32;;;;;;;2.15;0.80;;;;;;;18.48;100.00;100016.96;1757355;80;21384;-55
2022/07/19 20:23:58;;;;;;;1.25;0.65;;;;;;;18.44;100.00;100015.47;1749857;80;20872;-51
2022/07/19 20:26:25;;;;;;;0.80;0.80;;;;;;;18.42;100.00;100007.41;1756948;80;21014;-52
2022/07/19 20:28:52;;;;;;;0.90;0.70;;;;;;;18.40;100.00;100017.55;1753317;80;21247;-53
2022/07/19 20:31:18;;;;;;;1.65;0.80;;;;;;;18.37;100.00;100015.05;1750389;80;21125;-52
2022/07/19 20:33:45;;;;;;;3.22;0.80;;;;;;;18.36;100.00;100017.91;1752646;80;21038;-51
2022/07/19 20:36:11;;;;;;;1.35;0.70;;;;;;;18.34;100.00;100015.79;1745033;80;21600;-53
2022/07/19 20:38:38;;;;;;;0.70;0.70;;;;;;;18.30;100.00;100018.36;1749949;80;21085;-54
2022/07/19 20:41:05;;;;;;;1.42;0.80;;;;;;;18.26;100.00;100015.02;1756651;80;21190;-51
2022/07/19 20:43:32;;;;;;;0.90;0.70;;;;;;;18.24;100.00;100015.62;1745548;80;21050;-53
2022/07/19 20:45:59;;;;;;;0.90;0.80;;;;;;;18.21;100.00;100018.56;1733060;80;20962;-51
2022/07/19 20:48:26;;;;;;;1.37;1.00;;;;;;;18.19;100.00;100025.13;1748120;80;21105;-53
2022/07/19 20:50:52;;;;;;;1.20;0.90;;;;;;;18.17;100.00;100023.01;1757328;80;21117;-54
2022/07/19 20:53:19;;;;;;;1.02;0.90;;;;;;;18.15;100.00;100024.48;1754051;80;21715;-53
2022/07/19 20:55:46;;;;;;;1.50;0.88;;;;;;;18.13;100.00;100024.59;1753515;80;22430;-51
2022/07/19 20:58:14;;;;;;;1.17;0.90;;;;;;;18.13;100.00;100031.41;1756018;80;21046;-53
2022/07/19 21:00:40;;;;;;;1.40;1.30;;;;;;;18.11;100.00;100026.58;1750034;80;21658;-52
2022/07/19 21:03:06;;;;;;;1.65;1.10;;;;;;;18.09;100.00;100021.73;1753339;80;21122;-53
2022/07/19 21:05:34;;;;;;;0.90;0.90;;;;;;;18.06;100.00;100021.95;1750705;80;21452;-53
2022/07/19 21:08:01;;;;;;;1.07;0.93;;;;;;;18.03;100.00;100026.26;1756841;80;21038;-52
2022/07/19 21:10:29;;;;;;;1.20;1.10;;;;;;;18.00;100.00;100027.88;1755902;80;21452;-53
2022/07/19 21:12:56;;;;;;;1.72;0.98;;;;;;;17.98;100.00;100026.23;1753293;80;21070;-52
2022/07/19 21:15:23;;;;;;;2.15;1.42;;;;;;;17.95;100.00;100031.41;1756185;80;21420;-52
2022/07/19 21:17:51;;;;;;;2.95;1.50;;;;;;;17.92;100.00;100015.31;1752987;80;21553;-52
2022/07/19 21:20:17;;;;;;;2.00;1.67;;;;;;;17.90;100.00;100012.31;1755886;80;21082;-54
2022/07/19 21:22:46;;;;;;;3.62;1.82;;;;;;;17.87;100.00;100010.69;1756956;80;21045;-55
2022/07/19 21:25:12;;;;;;;3.12;2.25;;;;;;;17.84;100.00;100010.06;1757685;80;21451;-56
2022/07/19 21:27:39;;;;;;;3.15;2.47;;;;;;;17.82;100.00;100012.89;1756772;80;22214;-53
2022/07/19 21:30:07;;;;;;;4.10;1.72;;;;;;;17.79;100.00;100013.10;1754083;80;20998;-52
2022/07/19 21:32:34;;;;;;;1.57;1.40;;;;;;;17.78;100.00;100011.36;1754196;80;21451;-53
2022/07/19 21:35:01;;;;;;;2.85;1.10;;;;;;;17.76;100.00;100006.55;1755145;80;21145;-55
2022/07/19 21:37:27;;;;;;;2.17;1.20;;;;;;;17.73;100.00;100009.48;1750884;80;21430;-52
2022/07/19 21:39:53;;;;;;;1.92;1.40;;;;;;;17.71;100.00;100010.95;1758565;79;22216;-52
2022/07/19 21:42:20;;;;;;;1.77;1.22;;;;;;;17.67;100.00;100007.22;1757039;80;21132;-53
2022/07/19 21:44:46;;;;;;;1.62;1.35;;;;;;;17.63;100.00;100005.69;1758267;80;21627;-52
2022/07/19 21:47:13;;;;;;;2.67;1.20;;;;;;;17.58;100.00;100010.09;1756365;80;21065;-53
2022/07/19 21:49:40;;;;;;;3.22;2.00;;;;;;;17.55;100.00;100005.34;1753255;80;21057;-52
2022/07/19 21:52:06;;;;;;;2.15;1.20;;;;;;;17.51;100.00;100006.56;1760572;80;21239;-54
2022/07/19 21:54:33;;;;;;;1.47;1.05;;;;;;;17.47;100.00;100010.48;1760803;80;21801;-52
2022/07/19 21:57:00;;;;;;;1.65;0.90;;;;;;;17.39;100.00;100010.55;1754190;80;21045;-52
2022/07/19 21:59:26;;;;;;;1.10;0.90;;;;;;;17.31;100.00;100010.72;1745557;80;21042;-54
2022/07/19 22:01:54;;;;;;;3.52;0.80;;;;;;;17.24;100.00;100013.50;1753186;80;21100;-52